• Infinite Player


    En France !!!

    Jouez au poker dans

    votre établissement favori :

    c'est en live, c'est 100% gratuit,

    et vous vous créez un cercle d'amis.

  • Infinite Player

    Résultats

    Consultez vos

    classements

    et statistiques

  • Infinite Player

    Devenir établissement partenaire

    Devenir

    établissement partenaire

    Que vous soyez un bowling, un bar, un restaurant,

    un hôtel, une salle de billard ou même une discothèque

    vous pouvez très nettement augmenter votre clientèle de

    semaine en hébergeant facilement ces tournois de poker

APRES 5 ANS EN SUISSE, NOUS VOICI EN FRANCE !!!

INFINITE PLAYER :

La seule Ligue 100% gratuite de poker en Suisse depuis 2015, s’installe en France pour ton plus grand plaisir !!!

Pour participer c’est très simple, connecte-toi à ton espace personnel, choisis le jour où tu veux jouer, inscris-toi, et c'est parti !

Selon ton classement et du nombre de joueurs, tu obtiens des points qui forment une moyenne et ainsi, à chaque fin de saison (4 mois), te donneront accès aux finales, toujours 100% gratuites, regroupant les meilleurs joueurs des établissements de la région et avec une dotation extraordinaire !!

Auras-tu l’aplomb ? Seras-tu le prochain champion INFINITE PLAYER en remportant des tickets pour les plus grands tournois d’Europe ?

SHUFFLE UP AND DEAL !!!

Dernières nouvelles

Le classement Infinite Player du Q3 2021 dans la zone SUD est disponible.

CLIQUE ICI POUR Y ACCEDER

A jour au 02/12/2021, prochaine mise à jour le 10/12.

Le classement Infinite Player du Q3 2021 en Rhône-Alpes est disponible.

CLIQUE ICI POUR Y ACCEDER

A jour au 02/12/2021, prochaine mise à jour le 10/12.

Tu veux jouer avec nous Online et participer à nos divers championnats ? C'est par ici que ça se passe :

CLIQUE ICI POUR Y ACCEDER

LA SORTIE DU COVID APPROCHE !! On reprend enfin le Poker Live gratuit dans vos établissements favoris après cette longue période sans vous voir. En Juin c'est seulement les week-end (couvre-feu oblige) et dès Juillet retour à la normale. Par contre, le masque reste obligatoire et le 6-max imposé jusqu'à nouvel ordre.

DEPUIS 2015 EN SUISSE, NOUS VOICI ENFIN EN FRANCE !! Jouez au poker dans votre établissement favori : C'est en live, c'est 100% gratuit, et vous vous créez un cercle d'amis.

Nouveaux établissements

9 rue des Chasselas,
CLERMONT-L'HERAULT (34800)

Place Germain Ollier,
ROQUEBRUNE-SUR-ARGENS (83520)

890 avenue de la Mer-Raymond Dugrand,
MONTPELLIER (34000)

Tournois à venir

Ville

Établissement

Jour

Date / Heure de RDV
(start 30' après)

Inscriptions

202112081900 ANNEMASSE (74100) Le Little Rock Mercredi 08 décembre 19:00 20/24
202112081900 ANNECY (74000) Au Bureau (Annecy) Mercredi 08 décembre 19:00 10/16
202112081900 NICE (06300) L'Akathor Mercredi 08 décembre 19:00 29/32
202112081900 SALAISE-SUR-SANNE (38150) Le Cargo Mercredi 08 décembre 19:00 14/24
202112081900 HYERES (83400) Le People Mercredi 08 décembre 19:00 12/24
202112081900 MONTMELIAN (73800) O'BeeRock Mercredi 08 décembre 19:00 21/32
202112081900 VALENCE (26000) Le 12/04 Mercredi 08 décembre 19:00 6/24
202112081900 THONON-LES-BAINS (74200) O'CodeBar Mercredi 08 décembre 19:00 15/16
202112081930 SAINT-RAPHAËL (83530) Le Café des Bains Mercredi 08 décembre 19:30 32/32
202112081930 BOURG-EN-BRESSE (01000) Le Levrette Café Mercredi 08 décembre 19:30 9/16
202112081930 LES ABRETS (38490) Le 927 Mercredi 08 décembre 19:30 8/16
202112081930 ARLES (13200) Le Wilson Mercredi 08 décembre 19:30 0/24
202112081930 CESSY (01170) Le Cadence Café Mercredi 08 décembre 19:30 12/32
202112091900 ANNEMASSE (74100) Le Bowling de l'Aérodrome Jeudi 09 décembre 19:00 7/32
202112091900 THONON-LES-BAINS (74200) Le Flore (Thonon) Jeudi 09 décembre 19:00 7/32
202112091900 AUBAGNE (13400) Les Enfants Gâtés Jeudi 09 décembre 19:00 4/16
202112101900 MEYLAN (38240) Le Clara-Rosa Vendredi 10 décembre 19:00 3/24
202112121800 LE THOR (84250) My Beers (Isle sur Sorgue) Dimanche 12 décembre 18:00 1/24
202112121800 AVIGNON (84000) La Scène Dimanche 12 décembre 18:00 4/32
202112131830 LYON (69003) Le Malto Lundi 13 décembre 18:30 0/18
202112131900 MANDELIEU-LA-NAPOULE (06210) Le Lapsuce Lundi 13 décembre 19:00 7/24
202112131900 TOURNON (73460) Le Sporting Lundi 13 décembre 19:00 2/24
202112131900 CHAMBERY (73000) Le Brock Art Lundi 13 décembre 19:00 0/18
202112131900 SILLINGY (74330) L'American Diner Lundi 13 décembre 19:00 5/32
202112131930 THONON-LES-BAINS (74200) La Bodega Lundi 13 décembre 19:30 1/32
202112131930 ANNEMASSE (74100) Le Madness Beear Lundi 13 décembre 19:30 6/24
202112141830 LYON (69003) Le Malto Mardi 14 décembre 18:30 1/18
202112141830 SAINT JULIEN EN GENEVOIS (74160) Le Saint Jus Mardi 14 décembre 18:30 17/18
202112141900 NICE (06300) L'Akathor Mardi 14 décembre 19:00 16/32
202112141900 LE PONT-DE-BEAUVOISIN (73330) Le Beer's Company Mardi 14 décembre 19:00 2/24
202112141900 LAGNIEU (01150) La Grange Mardi 14 décembre 19:00 0/24
202112141900 GRENOBLE (38000) Le Harper's House Mardi 14 décembre 19:00 0/18
202112141900 SCIONZIER (74950) Le BobbyBar Mardi 14 décembre 19:00 5/18
202112141900 SALON-DE-PROVENCE (13300) La Mezzetta Mardi 14 décembre 19:00 2/16
202112141900 RIORGES (42153) Le Bowling de Roanne/Riorges Mardi 14 décembre 19:00 2/24
202112141900 BOURG-EN-BRESSE (01000) Le 1055 Mardi 14 décembre 19:00 2/27
202112141900 SEYNOD (74600) Le Crazy Clock Mardi 14 décembre 19:00 3/24
202112141930 AIX-EN-PROVENCE (13100) Le Bar BQ Mardi 14 décembre 19:30 1/16
202112151900 ANNECY (74000) Au Bureau (Annecy) Mercredi 15 décembre 19:00 1/16
202112151900 THONON-LES-BAINS (74200) O'CodeBar Mercredi 15 décembre 19:00 1/16
202112151900 ANNEMASSE (74100) Le Little Rock Mercredi 15 décembre 19:00 19/24
202112151900 SALAISE-SUR-SANNE (38150) Le Cargo Mercredi 15 décembre 19:00 5/24
202112151900 HYERES (83400) Le People Mercredi 15 décembre 19:00 2/24
202112151900 VALENCE (26000) Le 12/04 Mercredi 15 décembre 19:00 3/24
202112151900 MONTMELIAN (73800) O'BeeRock Mercredi 15 décembre 19:00 5/32
202112151930 CESSY (01170) Le Cadence Café Mercredi 15 décembre 19:30 1/32
202112151930 BOURG-EN-BRESSE (01000) Le Levrette Café Mercredi 15 décembre 19:30 4/16
202112151930 SAINT-RAPHAËL (83530) Le Café des Bains Mercredi 15 décembre 19:30 32/32
202112151930 LES ABRETS (38490) Le 927 Mercredi 15 décembre 19:30 0/16
202112151930 ARLES (13200) Le Wilson Mercredi 15 décembre 19:30 0/24
202112161900 ANNEMASSE (74100) Le Bowling de l'Aérodrome Jeudi 16 décembre 19:00 2/32
202112161900 THONON-LES-BAINS (74200) Le Flore (Thonon) Jeudi 16 décembre 19:00 2/32
202112161900 AUBAGNE (13400) Les Enfants Gâtés Jeudi 16 décembre 19:00 1/16
202112171900 MEYLAN (38240) Le Clara-Rosa Vendredi 17 décembre 19:00 4/24
202112191800 AVIGNON (84000) La Scène Dimanche 19 décembre 18:00 3/32
202112191800 LE THOR (84250) My Beers (Isle sur Sorgue) Dimanche 19 décembre 18:00 1/24
202112201900 CHAMBERY (73000) Le Brock Art Lundi 20 décembre 19:00 0/18
202112201900 SILLINGY (74330) L'American Diner Lundi 20 décembre 19:00 3/32
202112201900 MANDELIEU-LA-NAPOULE (06210) Le Lapsuce Lundi 20 décembre 19:00 4/24
202112201900 TOURNON (73460) Le Sporting Lundi 20 décembre 19:00 1/24
202112201930 ANNEMASSE (74100) Le Madness Beear Lundi 20 décembre 19:30 3/24
202112201930 LES ABRETS (38490) Le 927 Lundi 20 décembre 19:30 0/16
202112201930 THONON-LES-BAINS (74200) La Bodega Lundi 20 décembre 19:30 0/32
202112211830 SAINT JULIEN EN GENEVOIS (74160) Le Saint Jus Mardi 21 décembre 18:30 12/18
202112211830 LYON (69003) Le Malto Mardi 21 décembre 18:30 1/18
202112211900 BOURG-EN-BRESSE (01000) Le 1055 Mardi 21 décembre 19:00 2/27
202112211900 SEYNOD (74600) Le Crazy Clock Mardi 21 décembre 19:00 1/24
202112211900 LAGNIEU (01150) La Grange Mardi 21 décembre 19:00 0/24
202112211900 RIORGES (42153) Le Bowling de Roanne/Riorges Mardi 21 décembre 19:00 1/24
202112211900 GRENOBLE (38000) Le Harper's House Mardi 21 décembre 19:00 0/18
202112211900 LE PONT-DE-BEAUVOISIN (73330) Le Beer's Company Mardi 21 décembre 19:00 2/24
202112211900 SALON-DE-PROVENCE (13300) La Mezzetta Mardi 21 décembre 19:00 0/16
202112211900 NICE (06300) L'Akathor Mardi 21 décembre 19:00 7/32
202112211900 SCIONZIER (74950) Le BobbyBar Mardi 21 décembre 19:00 4/18
202112211930 AIX-EN-PROVENCE (13100) Le Bar BQ Mardi 21 décembre 19:30 1/16
202112221900 SALAISE-SUR-SANNE (38150) Le Cargo Mercredi 22 décembre 19:00 4/24
202112221900 THONON-LES-BAINS (74200) O'CodeBar Mercredi 22 décembre 19:00 0/16
202112221900 ANNECY (74000) Au Bureau (Annecy) Mercredi 22 décembre 19:00 0/16
202112221900 MONTMELIAN (73800) O'BeeRock Mercredi 22 décembre 19:00 2/32
202112221900 VALENCE (26000) Le 12/04 Mercredi 22 décembre 19:00 1/24
202112221900 HYERES (83400) Le People Mercredi 22 décembre 19:00 0/24
202112221900 ANNEMASSE (74100) Le Little Rock Mercredi 22 décembre 19:00 8/24
202112221930 ARLES (13200) Le Wilson Mercredi 22 décembre 19:30 0/24
202112221930 CESSY (01170) Le Cadence Café Mercredi 22 décembre 19:30 1/32
202112221930 BOURG-EN-BRESSE (01000) Le Levrette Café Mercredi 22 décembre 19:30 2/16
202112221930 SAINT-RAPHAËL (83530) Le Café des Bains Mercredi 22 décembre 19:30 15/32
202112231900 AUBAGNE (13400) Les Enfants Gâtés Jeudi 23 décembre 19:00 1/16
202112231900 ANNEMASSE (74100) Le Bowling de l'Aérodrome Jeudi 23 décembre 19:00 2/32
202112231900 THONON-LES-BAINS (74200) Le Flore (Thonon) Jeudi 23 décembre 19:00 0/32
202112261800 LE THOR (84250) My Beers (Isle sur Sorgue) Dimanche 26 décembre 18:00 0/24
202112261800 AVIGNON (84000) La Scène Dimanche 26 décembre 18:00 2/32
202112271830 LYON (69003) Le Malto Lundi 27 décembre 18:30 0/18
202112271900 MANDELIEU-LA-NAPOULE (06210) Le Lapsuce Lundi 27 décembre 19:00 0/24
202112271900 TOURNON (73460) Le Sporting Lundi 27 décembre 19:00 0/24
202112271900 SILLINGY (74330) L'American Diner Lundi 27 décembre 19:00 1/32
202112271900 CHAMBERY (73000) Le Brock Art Lundi 27 décembre 19:00 0/18
202112271930 THONON-LES-BAINS (74200) La Bodega Lundi 27 décembre 19:30 0/32
202112271930 ANNEMASSE (74100) Le Madness Beear Lundi 27 décembre 19:30 0/24
202112281830 SAINT JULIEN EN GENEVOIS (74160) Le Saint Jus Mardi 28 décembre 18:30 4/18
202112281900 SEYNOD (74600) Le Crazy Clock Mardi 28 décembre 19:00 0/24
Page sur

Devenir établissement partenaire

L’équipe d'INFINITE PLAYER vous propose un concept innovant d’animation dans les bars, restaurants, bowling… grâce à son concept de poker 100% gratuit et donc 100% légal.

Son ambition est d’aider ses établissements partenaires à renforcer la vie sociale de ces lieux en proposant une animation moderne, tendance et régulière !


Une prestation 3 en 1, à moindres coûts !

  • Vous aider à dynamiser une soirée creuse dans la semaine.

  • Vous apporter une nouvelle clientèle et la fidéliser rapidement.

  • Accroître votre notoriété et faire parler de votre établissement.


Pour cela, nous vous apportons :


Contactez nous


  • Email : contact@infiniteplayer.fr
  • Téléphone :

Merci de saisir votre nom ou pseudo

Posez nous toutes vos questions

Merci, votre message e été envoyé avec succès.

Echec de l'envois, veuillez verifier votre adresse mail.

Echec de l'envois, veuillez verifier votre nom.

Echec de l'envois, n'avez-vous pas oublié de taper votre message ?

Echec de l'envois, une erreur est survenue